sensor_id;sensor_type;location;lat;lon;timestamp;P1;durP1;ratioP1;P2;durP2;ratioP2
76814;SDS011;65768;49.906;19.384;2023-03-31T00:01:33;10.10;;;5.90;;
76814;SDS011;65768;49.906;19.384;2023-03-31T00:04:01;12.00;;;5.50;;
76814;SDS011;65768;49.906;19.384;2023-03-31T00:06:36;11.00;;;5.90;;
76814;SDS011;65768;49.906;19.384;2023-03-31T00:09:06;7.40;;;4.50;;
76814;SDS011;65768;49.906;19.384;2023-03-31T00:11:38;11.00;;;5.90;;
76814;SDS011;65768;49.906;19.384;2023-03-31T00:14:08;5.00;;;3.70;;
76814;SDS011;65768;49.906;19.384;2023-03-31T00:16:37;9.00;;;4.70;;
76814;SDS011;65768;49.906;19.384;2023-03-31T00:19:05;9.20;;;5.10;;
76814;SDS011;65768;49.906;19.384;2023-03-31T00:21:37;10.40;;;4.90;;
76814;SDS011;65768;49.906;19.384;2023-03-31T00:24:10;8.80;;;5.20;;
76814;SDS011;65768;49.906;19.384;2023-03-31T00:26:39;9.10;;;4.70;;
76814;SDS011;65768;49.906;19.384;2023-03-31T00:29:07;8.10;;;4.60;;
76814;SDS011;65768;49.906;19.384;2023-03-31T00:31:38;7.30;;;3.90;;
76814;SDS011;65768;49.906;19.384;2023-03-31T00:34:06;7.40;;;4.40;;
76814;SDS011;65768;49.906;19.384;2023-03-31T00:36:35;8.10;;;3.80;;
76814;SDS011;65768;49.906;19.384;2023-03-31T00:39:15;7.40;;;4.10;;
76814;SDS011;65768;49.906;19.384;2023-03-31T00:41:45;8.70;;;3.90;;
76814;SDS011;65768;49.906;19.384;2023-03-31T00:44:17;8.10;;;3.70;;
76814;SDS011;65768;49.906;19.384;2023-03-31T00:46:56;7.20;;;5.00;;
76814;SDS011;65768;49.906;19.384;2023-03-31T00:49:32;7.50;;;3.20;;
76814;SDS011;65768;49.906;19.384;2023-03-31T00:52:25;5.70;;;3.30;;
76814;SDS011;65768;49.906;19.384;2023-03-31T00:55:05;5.20;;;2.80;;
76814;SDS011;65768;49.906;19.384;2023-03-31T00:57:37;7.80;;;4.00;;
76814;SDS011;65768;49.906;19.384;2023-03-31T01:00:13;4.90;;;2.60;;
76814;SDS011;65768;49.906;19.384;2023-03-31T01:02:42;6.70;;;4.00;;
76814;SDS011;65768;49.906;19.384;2023-03-31T01:05:26;6.40;;;3.90;;
76814;SDS011;65768;49.906;19.384;2023-03-31T01:07:59;7.30;;;3.70;;
76814;SDS011;65768;49.906;19.384;2023-03-31T01:10:29;10.10;;;5.10;;
76814;SDS011;65768;49.906;19.384;2023-03-31T01:13:05;7.70;;;3.50;;
76814;SDS011;65768;49.906;19.384;2023-03-31T01:15:37;6.40;;;3.90;;
76814;SDS011;65768;49.906;19.384;2023-03-31T01:18:07;5.10;;;3.30;;
76814;SDS011;65768;49.906;19.384;2023-03-31T01:20:52;6.90;;;3.80;;
76814;SDS011;65768;49.906;19.384;2023-03-31T01:29:54;5.30;;;2.90;;
76814;SDS011;65768;49.906;19.384;2023-03-31T01:45:35;5.10;;;2.70;;
76814;SDS011;65768;49.906;19.384;2023-03-31T01:53:24;5.00;;;2.60;;
76814;SDS011;65768;49.906;19.384;2023-03-31T01:56:12;2.90;;;1.80;;
76814;SDS011;65768;49.906;19.384;2023-03-31T02:01:22;3.60;;;1.80;;
76814;SDS011;65768;49.906;19.384;2023-03-31T02:03:54;4.40;;;2.20;;
76814;SDS011;65768;49.906;19.384;2023-03-31T02:06:27;4.30;;;2.50;;
76814;SDS011;65768;49.906;19.384;2023-03-31T02:09:03;4.60;;;2.20;;
76814;SDS011;65768;49.906;19.384;2023-03-31T02:11:37;4.90;;;1.80;;
76814;SDS011;65768;49.906;19.384;2023-03-31T02:14:09;2.70;;;2.00;;
76814;SDS011;65768;49.906;19.384;2023-03-31T02:16:40;4.00;;;2.40;;
76814;SDS011;65768;49.906;19.384;2023-03-31T02:19:15;3.80;;;1.90;;
76814;SDS011;65768;49.906;19.384;2023-03-31T02:21:46;3.60;;;1.70;;
76814;SDS011;65768;49.906;19.384;2023-03-31T02:24:18;3.30;;;1.70;;
76814;SDS011;65768;49.906;19.384;2023-03-31T02:29:23;3.30;;;1.70;;
76814;SDS011;65768;49.906;19.384;2023-03-31T02:31:55;3.70;;;1.80;;
76814;SDS011;65768;49.906;19.384;2023-03-31T02:34:29;3.10;;;1.50;;
76814;SDS011;65768;49.906;19.384;2023-03-31T02:36:58;3.70;;;1.70;;
76814;SDS011;65768;49.906;19.384;2023-03-31T02:39:28;3.80;;;1.80;;
76814;SDS011;65768;49.906;19.384;2023-03-31T02:42:03;5.40;;;1.90;;
76814;SDS011;65768;49.906;19.384;2023-03-31T02:44:36;4.10;;;2.20;;
76814;SDS011;65768;49.906;19.384;2023-03-31T02:47:09;2.30;;;1.80;;
76814;SDS011;65768;49.906;19.384;2023-03-31T02:49:40;2.50;;;1.50;;
76814;SDS011;65768;49.906;19.384;2023-03-31T02:55:02;3.70;;;1.90;;
76814;SDS011;65768;49.906;19.384;2023-03-31T03:06:48;3.30;;;1.80;;
76814;SDS011;65768;49.906;19.384;2023-03-31T03:09:54;3.20;;;2.30;;
76814;SDS011;65768;49.906;19.384;2023-03-31T03:15:24;3.40;;;2.30;;
76814;SDS011;65768;49.906;19.384;2023-03-31T03:17:58;4.20;;;2.60;;
76814;SDS011;65768;49.906;19.384;2023-03-31T03:20:26;4.70;;;2.90;;
76814;SDS011;65768;49.906;19.384;2023-03-31T03:22:54;7.60;;;3.40;;
76814;SDS011;65768;49.906;19.384;2023-03-31T03:25:22;6.70;;;3.00;;
76814;SDS011;65768;49.906;19.384;2023-03-31T03:27:50;6.80;;;3.70;;
76814;SDS011;65768;49.906;19.384;2023-03-31T03:30:19;7.90;;;4.80;;
76814;SDS011;65768;49.906;19.384;2023-03-31T03:32:48;11.40;;;5.60;;
76814;SDS011;65768;49.906;19.384;2023-03-31T03:35:17;8.10;;;4.60;;
76814;SDS011;65768;49.906;19.384;2023-03-31T03:37:45;6.80;;;3.90;;
76814;SDS011;65768;49.906;19.384;2023-03-31T03:40:13;6.40;;;3.80;;
76814;SDS011;65768;49.906;19.384;2023-03-31T03:42:43;5.20;;;3.30;;
76814;SDS011;65768;49.906;19.384;2023-03-31T03:45:11;5.90;;;3.00;;
76814;SDS011;65768;49.906;19.384;2023-03-31T03:47:39;6.30;;;3.90;;
76814;SDS011;65768;49.906;19.384;2023-03-31T03:50:09;3.90;;;2.60;;
76814;SDS011;65768;49.906;19.384;2023-03-31T03:52:38;6.60;;;3.20;;
76814;SDS011;65768;49.906;19.384;2023-03-31T03:55:07;5.20;;;3.30;;
76814;SDS011;65768;49.906;19.384;2023-03-31T03:57:35;8.60;;;4.40;;
76814;SDS011;65768;49.906;19.384;2023-03-31T04:00:11;10.60;;;5.30;;
76814;SDS011;65768;49.906;19.384;2023-03-31T04:02:39;8.00;;;4.50;;
76814;SDS011;65768;49.906;19.384;2023-03-31T04:05:08;10.00;;;4.30;;
76814;SDS011;65768;49.906;19.384;2023-03-31T04:07:37;9.10;;;4.60;;
76814;SDS011;65768;49.906;19.384;2023-03-31T04:10:05;5.90;;;3.60;;
76814;SDS011;65768;49.906;19.384;2023-03-31T04:12:34;7.30;;;3.50;;
76814;SDS011;65768;49.906;19.384;2023-03-31T04:15:03;8.00;;;4.70;;
76814;SDS011;65768;49.906;19.384;2023-03-31T04:17:32;6.10;;;3.40;;
76814;SDS011;65768;49.906;19.384;2023-03-31T04:20:05;6.20;;;3.80;;
76814;SDS011;65768;49.906;19.384;2023-03-31T04:22:36;7.90;;;4.10;;
76814;SDS011;65768;49.906;19.384;2023-03-31T04:25:08;8.10;;;5.30;;
76814;SDS011;65768;49.906;19.384;2023-03-31T04:27:43;8.70;;;5.10;;
76814;SDS011;65768;49.906;19.384;2023-03-31T04:30:17;7.40;;;4.50;;
76814;SDS011;65768;49.906;19.384;2023-03-31T04:32:56;8.70;;;5.60;;
76814;SDS011;65768;49.906;19.384;2023-03-31T04:35:26;9.30;;;6.00;;
76814;SDS011;65768;49.906;19.384;2023-03-31T04:38:20;10.80;;;7.10;;
76814;SDS011;65768;49.906;19.384;2023-03-31T04:40:50;12.50;;;8.30;;
76814;SDS011;65768;49.906;19.384;2023-03-31T04:43:20;14.30;;;8.30;;
76814;SDS011;65768;49.906;19.384;2023-03-31T04:45:49;14.90;;;10.00;;
76814;SDS011;65768;49.906;19.384;2023-03-31T04:48:17;9.90;;;7.70;;
76814;SDS011;65768;49.906;19.384;2023-03-31T04:50:46;10.70;;;6.80;;
76814;SDS011;65768;49.906;19.384;2023-03-31T04:53:14;7.70;;;4.10;;
76814;SDS011;65768;49.906;19.384;2023-03-31T04:55:42;7.00;;;3.90;;
76814;SDS011;65768;49.906;19.384;2023-03-31T04:58:11;6.50;;;4.60;;
76814;SDS011;65768;49.906;19.384;2023-03-31T05:00:39;8.80;;;5.40;;
76814;SDS011;65768;49.906;19.384;2023-03-31T05:03:07;6.30;;;4.70;;
76814;SDS011;65768;49.906;19.384;2023-03-31T05:05:37;7.60;;;4.90;;
76814;SDS011;65768;49.906;19.384;2023-03-31T05:08:06;9.40;;;6.20;;
76814;SDS011;65768;49.906;19.384;2023-03-31T05:10:35;8.70;;;5.30;;
76814;SDS011;65768;49.906;19.384;2023-03-31T05:13:03;7.00;;;4.80;;
76814;SDS011;65768;49.906;19.384;2023-03-31T05:15:32;7.60;;;4.90;;
76814;SDS011;65768;49.906;19.384;2023-03-31T05:18:01;9.30;;;5.40;;
76814;SDS011;65768;49.906;19.384;2023-03-31T05:20:29;9.60;;;5.30;;
76814;SDS011;65768;49.906;19.384;2023-03-31T05:22:57;8.60;;;5.80;;
76814;SDS011;65768;49.906;19.384;2023-03-31T05:25:26;9.30;;;5.60;;
76814;SDS011;65768;49.906;19.384;2023-03-31T05:27:59;8.80;;;6.00;;
76814;SDS011;65768;49.906;19.384;2023-03-31T05:30:28;10.50;;;6.10;;
76814;SDS011;65768;49.906;19.384;2023-03-31T05:32:57;11.70;;;6.70;;
76814;SDS011;65768;49.906;19.384;2023-03-31T05:35:25;11.00;;;6.40;;
76814;SDS011;65768;49.906;19.384;2023-03-31T05:37:54;10.30;;;7.00;;
76814;SDS011;65768;49.906;19.384;2023-03-31T05:40:23;11.30;;;7.60;;
76814;SDS011;65768;49.906;19.384;2023-03-31T05:42:51;13.20;;;7.40;;
76814;SDS011;65768;49.906;19.384;2023-03-31T05:45:20;13.60;;;7.20;;
76814;SDS011;65768;49.906;19.384;2023-03-31T05:47:48;14.20;;;8.30;;
76814;SDS011;65768;49.906;19.384;2023-03-31T05:50:18;13.10;;;8.10;;
76814;SDS011;65768;49.906;19.384;2023-03-31T05:52:47;13.00;;;7.80;;
76814;SDS011;65768;49.906;19.384;2023-03-31T05:55:16;16.90;;;7.80;;
76814;SDS011;65768;49.906;19.384;2023-03-31T05:57:45;14.50;;;7.30;;
76814;SDS011;65768;49.906;19.384;2023-03-31T06:00:14;13.40;;;6.50;;
76814;SDS011;65768;49.906;19.384;2023-03-31T06:02:43;7.70;;;4.50;;
76814;SDS011;65768;49.906;19.384;2023-03-31T06:05:12;6.30;;;4.00;;
76814;SDS011;65768;49.906;19.384;2023-03-31T06:07:41;5.80;;;3.90;;
76814;SDS011;65768;49.906;19.384;2023-03-31T06:10:09;5.90;;;4.10;;
76814;SDS011;65768;49.906;19.384;2023-03-31T06:12:38;8.10;;;5.30;;
76814;SDS011;65768;49.906;19.384;2023-03-31T06:15:06;8.10;;;4.50;;
76814;SDS011;65768;49.906;19.384;2023-03-31T06:17:36;10.10;;;5.80;;
76814;SDS011;65768;49.906;19.384;2023-03-31T06:20:04;8.40;;;5.20;;
76814;SDS011;65768;49.906;19.384;2023-03-31T06:22:33;7.80;;;4.60;;
76814;SDS011;65768;49.906;19.384;2023-03-31T06:25:03;6.70;;;3.70;;
76814;SDS011;65768;49.906;19.384;2023-03-31T06:27:33;7.70;;;5.10;;
76814;SDS011;65768;49.906;19.384;2023-03-31T06:30:02;9.10;;;4.80;;
76814;SDS011;65768;49.906;19.384;2023-03-31T06:32:30;7.00;;;3.00;;
76814;SDS011;65768;49.906;19.384;2023-03-31T06:34:59;6.00;;;2.60;;
76814;SDS011;65768;49.906;19.384;2023-03-31T06:37:28;4.70;;;2.50;;
76814;SDS011;65768;49.906;19.384;2023-03-31T06:39:56;5.20;;;3.20;;
76814;SDS011;65768;49.906;19.384;2023-03-31T06:42:25;6.70;;;2.90;;
76814;SDS011;65768;49.906;19.384;2023-03-31T06:44:54;5.30;;;2.70;;
76814;SDS011;65768;49.906;19.384;2023-03-31T06:47:22;6.30;;;2.90;;
76814;SDS011;65768;49.906;19.384;2023-03-31T06:49:50;3.10;;;2.10;;
76814;SDS011;65768;49.906;19.384;2023-03-31T06:52:19;4.50;;;1.80;;
76814;SDS011;65768;49.906;19.384;2023-03-31T06:54:47;5.10;;;1.80;;
76814;SDS011;65768;49.906;19.384;2023-03-31T06:57:16;6.40;;;3.00;;
76814;SDS011;65768;49.906;19.384;2023-03-31T06:59:44;5.00;;;2.40;;
76814;SDS011;65768;49.906;19.384;2023-03-31T07:02:13;3.30;;;1.90;;
76814;SDS011;65768;49.906;19.384;2023-03-31T07:04:42;4.50;;;3.00;;
76814;SDS011;65768;49.906;19.384;2023-03-31T07:07:11;5.40;;;2.20;;
76814;SDS011;65768;49.906;19.384;2023-03-31T07:09:40;5.20;;;1.40;;
76814;SDS011;65768;49.906;19.384;2023-03-31T07:12:09;2.90;;;1.40;;
76814;SDS011;65768;49.906;19.384;2023-03-31T07:14:38;5.40;;;1.90;;
76814;SDS011;65768;49.906;19.384;2023-03-31T07:17:08;4.10;;;1.70;;
76814;SDS011;65768;49.906;19.384;2023-03-31T07:19:37;3.40;;;1.20;;
76814;SDS011;65768;49.906;19.384;2023-03-31T07:22:09;3.60;;;1.50;;
76814;SDS011;65768;49.906;19.384;2023-03-31T07:24:37;3.80;;;1.60;;
76814;SDS011;65768;49.906;19.384;2023-03-31T07:27:06;5.50;;;2.00;;
76814;SDS011;65768;49.906;19.384;2023-03-31T07:29:34;9.20;;;3.80;;
76814;SDS011;65768;49.906;19.384;2023-03-31T07:32:03;6.10;;;1.80;;
76814;SDS011;65768;49.906;19.384;2023-03-31T07:34:31;3.00;;;1.40;;
76814;SDS011;65768;49.906;19.384;2023-03-31T07:37:00;2.10;;;1.20;;
76814;SDS011;65768;49.906;19.384;2023-03-31T07:39:28;6.10;;;1.50;;
76814;SDS011;65768;49.906;19.384;2023-03-31T07:41:57;3.20;;;1.50;;
76814;SDS011;65768;49.906;19.384;2023-03-31T07:44:26;4.90;;;2.00;;
76814;SDS011;65768;49.906;19.384;2023-03-31T07:46:54;5.00;;;1.60;;
76814;SDS011;65768;49.906;19.384;2023-03-31T07:49:22;5.30;;;1.70;;
76814;SDS011;65768;49.906;19.384;2023-03-31T07:51:50;3.40;;;1.30;;
76814;SDS011;65768;49.906;19.384;2023-03-31T07:54:19;2.70;;;1.40;;
76814;SDS011;65768;49.906;19.384;2023-03-31T07:56:47;7.30;;;1.40;;
76814;SDS011;65768;49.906;19.384;2023-03-31T07:59:15;4.20;;;1.60;;
76814;SDS011;65768;49.906;19.384;2023-03-31T08:01:43;1.70;;;1.00;;
76814;SDS011;65768;49.906;19.384;2023-03-31T08:04:12;4.90;;;1.50;;
76814;SDS011;65768;49.906;19.384;2023-03-31T08:06:40;3.60;;;1.20;;
76814;SDS011;65768;49.906;19.384;2023-03-31T08:09:08;3.70;;;1.30;;
76814;SDS011;65768;49.906;19.384;2023-03-31T08:11:37;4.70;;;1.30;;
76814;SDS011;65768;49.906;19.384;2023-03-31T08:14:06;5.20;;;1.40;;
76814;SDS011;65768;49.906;19.384;2023-03-31T08:16:36;5.80;;;1.60;;
76814;SDS011;65768;49.906;19.384;2023-03-31T08:19:04;2.50;;;1.40;;
76814;SDS011;65768;49.906;19.384;2023-03-31T08:21:33;6.60;;;1.90;;
76814;SDS011;65768;49.906;19.384;2023-03-31T08:24:03;3.60;;;1.60;;
76814;SDS011;65768;49.906;19.384;2023-03-31T08:26:33;3.60;;;1.40;;
76814;SDS011;65768;49.906;19.384;2023-03-31T08:29:02;2.70;;;1.50;;
76814;SDS011;65768;49.906;19.384;2023-03-31T08:31:31;3.90;;;1.80;;
76814;SDS011;65768;49.906;19.384;2023-03-31T08:34:00;4.00;;;1.70;;
76814;SDS011;65768;49.906;19.384;2023-03-31T08:36:29;3.40;;;1.20;;
76814;SDS011;65768;49.906;19.384;2023-03-31T08:38:58;4.30;;;1.60;;
76814;SDS011;65768;49.906;19.384;2023-03-31T08:44:30;4.10;;;1.20;;
76814;SDS011;65768;49.906;19.384;2023-03-31T08:47:03;3.10;;;1.40;;
76814;SDS011;65768;49.906;19.384;2023-03-31T08:49:44;2.30;;;1.00;;
76814;SDS011;65768;49.906;19.384;2023-03-31T08:52:23;5.10;;;1.60;;
76814;SDS011;65768;49.906;19.384;2023-03-31T08:55:11;3.00;;;1.30;;
76814;SDS011;65768;49.906;19.384;2023-03-31T08:57:50;4.20;;;1.20;;
76814;SDS011;65768;49.906;19.384;2023-03-31T09:00:22;1.60;;;0.80;;
76814;SDS011;65768;49.906;19.384;2023-03-31T09:02:58;3.80;;;1.40;;
76814;SDS011;65768;49.906;19.384;2023-03-31T09:11:08;5.20;;;1.30;;
76814;SDS011;65768;49.906;19.384;2023-03-31T09:22:25;4.00;;;1.10;;
76814;SDS011;65768;49.906;19.384;2023-03-31T09:25:05;3.70;;;1.00;;
76814;SDS011;65768;49.906;19.384;2023-03-31T09:27:34;2.60;;;1.20;;
76814;SDS011;65768;49.906;19.384;2023-03-31T09:32:42;3.60;;;1.10;;
76814;SDS011;65768;49.906;19.384;2023-03-31T09:35:20;2.90;;;0.90;;
76814;SDS011;65768;49.906;19.384;2023-03-31T09:37:50;3.90;;;1.20;;
76814;SDS011;65768;49.906;19.384;2023-03-31T09:40:21;2.50;;;1.30;;
76814;SDS011;65768;49.906;19.384;2023-03-31T09:45:29;3.10;;;1.50;;
76814;SDS011;65768;49.906;19.384;2023-03-31T09:47:58;4.10;;;1.10;;
76814;SDS011;65768;49.906;19.384;2023-03-31T09:50:29;4.50;;;1.30;;
76814;SDS011;65768;49.906;19.384;2023-03-31T09:53:03;1.60;;;1.00;;
76814;SDS011;65768;49.906;19.384;2023-03-31T09:55:39;5.00;;;1.20;;
76814;SDS011;65768;49.906;19.384;2023-03-31T09:58:12;2.80;;;1.00;;
76814;SDS011;65768;49.906;19.384;2023-03-31T10:00:43;7.00;;;1.20;;
76814;SDS011;65768;49.906;19.384;2023-03-31T10:03:49;4.80;;;1.40;;
76814;SDS011;65768;49.906;19.384;2023-03-31T10:06:20;2.30;;;1.20;;
76814;SDS011;65768;49.906;19.384;2023-03-31T10:08:54;3.70;;;1.30;;
76814;SDS011;65768;49.906;19.384;2023-03-31T10:11:26;2.40;;;1.00;;
76814;SDS011;65768;49.906;19.384;2023-03-31T10:14:02;3.80;;;1.00;;
76814;SDS011;65768;49.906;19.384;2023-03-31T10:16:34;2.80;;;1.30;;
76814;SDS011;65768;49.906;19.384;2023-03-31T10:19:13;5.70;;;1.10;;
76814;SDS011;65768;49.906;19.384;2023-03-31T10:21:46;3.20;;;1.20;;
76814;SDS011;65768;49.906;19.384;2023-03-31T10:24:21;3.40;;;1.40;;
76814;SDS011;65768;49.906;19.384;2023-03-31T10:26:53;3.80;;;1.30;;
76814;SDS011;65768;49.906;19.384;2023-03-31T10:29:28;3.50;;;1.00;;
76814;SDS011;65768;49.906;19.384;2023-03-31T10:32:01;3.80;;;1.20;;
76814;SDS011;65768;49.906;19.384;2023-03-31T10:34:32;4.30;;;1.20;;
76814;SDS011;65768;49.906;19.384;2023-03-31T10:37:03;6.00;;;1.40;;
76814;SDS011;65768;49.906;19.384;2023-03-31T10:39:33;7.10;;;2.60;;
76814;SDS011;65768;49.906;19.384;2023-03-31T10:42:02;4.90;;;1.80;;
76814;SDS011;65768;49.906;19.384;2023-03-31T10:44:35;4.80;;;1.50;;
76814;SDS011;65768;49.906;19.384;2023-03-31T10:47:17;3.70;;;1.20;;
76814;SDS011;65768;49.906;19.384;2023-03-31T10:49:48;3.10;;;1.70;;
76814;SDS011;65768;49.906;19.384;2023-03-31T10:52:24;4.00;;;1.80;;
76814;SDS011;65768;49.906;19.384;2023-03-31T10:54:59;4.40;;;1.60;;
76814;SDS011;65768;49.906;19.384;2023-03-31T10:58:04;4.60;;;1.80;;
76814;SDS011;65768;49.906;19.384;2023-03-31T11:20:14;6.10;;;1.70;;
76814;SDS011;65768;49.906;19.384;2023-03-31T11:23:01;3.30;;;1.70;;
76814;SDS011;65768;49.906;19.384;2023-03-31T11:28:24;3.70;;;1.40;;
76814;SDS011;65768;49.906;19.384;2023-03-31T11:31:10;2.80;;;1.50;;
76814;SDS011;65768;49.906;19.384;2023-03-31T11:34:03;3.70;;;1.30;;
76814;SDS011;65768;49.906;19.384;2023-03-31T11:39:49;3.30;;;1.50;;
76814;SDS011;65768;49.906;19.384;2023-03-31T11:42:33;5.40;;;1.50;;
76814;SDS011;65768;49.906;19.384;2023-03-31T11:45:14;5.40;;;1.50;;
76814;SDS011;65768;49.906;19.384;2023-03-31T11:47:47;2.80;;;1.50;;
76814;SDS011;65768;49.906;19.384;2023-03-31T11:50:22;4.40;;;1.50;;
76814;SDS011;65768;49.906;19.384;2023-03-31T11:52:57;4.40;;;1.40;;
76814;SDS011;65768;49.906;19.384;2023-03-31T11:55:29;4.60;;;1.50;;
76814;SDS011;65768;49.906;19.384;2023-03-31T11:58:03;4.40;;;1.60;;
76814;SDS011;65768;49.906;19.384;2023-03-31T12:00:47;4.60;;;1.50;;
76814;SDS011;65768;49.906;19.384;2023-03-31T12:06:24;2.60;;;1.30;;
76814;SDS011;65768;49.906;19.384;2023-03-31T12:09:05;3.20;;;1.50;;
76814;SDS011;65768;49.906;19.384;2023-03-31T12:11:59;5.90;;;1.80;;
76814;SDS011;65768;49.906;19.384;2023-03-31T12:14:54;2.40;;;1.10;;
76814;SDS011;65768;49.906;19.384;2023-03-31T12:17:30;3.00;;;1.20;;
76814;SDS011;65768;49.906;19.384;2023-03-31T12:20:00;3.00;;;1.30;;
76814;SDS011;65768;49.906;19.384;2023-03-31T12:22:38;2.70;;;1.30;;
76814;SDS011;65768;49.906;19.384;2023-03-31T12:25:14;3.50;;;1.10;;
76814;SDS011;65768;49.906;19.384;2023-03-31T12:27:46;4.40;;;1.20;;
76814;SDS011;65768;49.906;19.384;2023-03-31T12:33:19;3.70;;;1.20;;
76814;SDS011;65768;49.906;19.384;2023-03-31T12:38:53;3.30;;;1.10;;
76814;SDS011;65768;49.906;19.384;2023-03-31T12:44:28;3.80;;;1.40;;
76814;SDS011;65768;49.906;19.384;2023-03-31T12:56:03;2.70;;;0.90;;
76814;SDS011;65768;49.906;19.384;2023-03-31T12:58:36;3.20;;;1.00;;
76814;SDS011;65768;49.906;19.384;2023-03-31T13:01:11;3.30;;;1.10;;
76814;SDS011;65768;49.906;19.384;2023-03-31T13:11:47;3.40;;;1.10;;
76814;SDS011;65768;49.906;19.384;2023-03-31T13:14:19;3.80;;;1.10;;
76814;SDS011;65768;49.906;19.384;2023-03-31T13:16:48;3.20;;;1.00;;
76814;SDS011;65768;49.906;19.384;2023-03-31T13:19:34;3.10;;;1.00;;
76814;SDS011;65768;49.906;19.384;2023-03-31T13:22:04;2.60;;;0.90;;
76814;SDS011;65768;49.906;19.384;2023-03-31T13:24:34;2.90;;;0.80;;
76814;SDS011;65768;49.906;19.384;2023-03-31T13:30:00;5.20;;;1.80;;
76814;SDS011;65768;49.906;19.384;2023-03-31T13:32:29;5.40;;;1.30;;
76814;SDS011;65768;49.906;19.384;2023-03-31T13:35:01;4.50;;;1.50;;
76814;SDS011;65768;49.906;19.384;2023-03-31T13:52:03;3.60;;;0.80;;
76814;SDS011;65768;49.906;19.384;2023-03-31T14:06:34;2.50;;;0.80;;
76814;SDS011;65768;49.906;19.384;2023-03-31T14:09:08;2.30;;;0.70;;
76814;SDS011;65768;49.906;19.384;2023-03-31T14:11:40;2.90;;;0.80;;
76814;SDS011;65768;49.906;19.384;2023-03-31T14:16:47;2.40;;;0.90;;
76814;SDS011;65768;49.906;19.384;2023-03-31T14:22:45;5.10;;;1.30;;
76814;SDS011;65768;49.906;19.384;2023-03-31T14:29:10;3.40;;;1.40;;
76814;SDS011;65768;49.906;19.384;2023-03-31T14:31:56;4.60;;;1.20;;
76814;SDS011;65768;49.906;19.384;2023-03-31T14:34:40;4.10;;;1.50;;
76814;SDS011;65768;49.906;19.384;2023-03-31T14:37:20;7.20;;;1.80;;
76814;SDS011;65768;49.906;19.384;2023-03-31T14:39:51;6.60;;;1.80;;
76814;SDS011;65768;49.906;19.384;2023-03-31T14:42:39;4.60;;;1.60;;
76814;SDS011;65768;49.906;19.384;2023-03-31T14:45:22;6.00;;;1.60;;
76814;SDS011;65768;49.906;19.384;2023-03-31T14:47:57;4.10;;;1.70;;
76814;SDS011;65768;49.906;19.384;2023-03-31T14:50:30;4.70;;;1.80;;
76814;SDS011;65768;49.906;19.384;2023-03-31T14:53:02;4.70;;;1.90;;
76814;SDS011;65768;49.906;19.384;2023-03-31T14:55:32;7.30;;;2.00;;
76814;SDS011;65768;49.906;19.384;2023-03-31T14:58:01;5.30;;;1.10;;
76814;SDS011;65768;49.906;19.384;2023-03-31T15:00:30;3.20;;;1.00;;
76814;SDS011;65768;49.906;19.384;2023-03-31T15:03:01;4.40;;;1.20;;
76814;SDS011;65768;49.906;19.384;2023-03-31T15:05:35;4.70;;;1.20;;
76814;SDS011;65768;49.906;19.384;2023-03-31T15:08:15;3.50;;;1.30;;
76814;SDS011;65768;49.906;19.384;2023-03-31T15:10:54;2.70;;;1.10;;
76814;SDS011;65768;49.906;19.384;2023-03-31T15:13:30;3.10;;;1.30;;
76814;SDS011;65768;49.906;19.384;2023-03-31T15:19:04;4.90;;;1.70;;
76814;SDS011;65768;49.906;19.384;2023-03-31T15:21:41;4.20;;;1.20;;
76814;SDS011;65768;49.906;19.384;2023-03-31T15:24:19;3.40;;;1.30;;
76814;SDS011;65768;49.906;19.384;2023-03-31T15:26:50;3.60;;;1.20;;
76814;SDS011;65768;49.906;19.384;2023-03-31T15:29:27;4.80;;;1.30;;
76814;SDS011;65768;49.906;19.384;2023-03-31T15:32:06;6.70;;;1.50;;
76814;SDS011;65768;49.906;19.384;2023-03-31T15:34:44;2.60;;;1.10;;
76814;SDS011;65768;49.906;19.384;2023-03-31T15:37:13;4.50;;;1.50;;
76814;SDS011;65768;49.906;19.384;2023-03-31T15:39:43;5.00;;;1.50;;
76814;SDS011;65768;49.906;19.384;2023-03-31T15:42:14;3.70;;;1.50;;
76814;SDS011;65768;49.906;19.384;2023-03-31T15:44:45;5.10;;;1.70;;
76814;SDS011;65768;49.906;19.384;2023-03-31T15:47:33;4.00;;;1.60;;
76814;SDS011;65768;49.906;19.384;2023-03-31T15:52:36;6.00;;;1.80;;
76814;SDS011;65768;49.906;19.384;2023-03-31T15:55:23;4.50;;;1.70;;
76814;SDS011;65768;49.906;19.384;2023-03-31T15:58:00;6.30;;;2.10;;
76814;SDS011;65768;49.906;19.384;2023-03-31T16:00:42;7.50;;;2.20;;
76814;SDS011;65768;49.906;19.384;2023-03-31T16:03:17;5.50;;;1.80;;
76814;SDS011;65768;49.906;19.384;2023-03-31T16:11:00;5.20;;;1.50;;
76814;SDS011;65768;49.906;19.384;2023-03-31T16:13:34;6.60;;;1.80;;
76814;SDS011;65768;49.906;19.384;2023-03-31T16:16:10;4.30;;;1.70;;
76814;SDS011;65768;49.906;19.384;2023-03-31T16:18:44;6.60;;;2.30;;
76814;SDS011;65768;49.906;19.384;2023-03-31T16:21:23;6.00;;;2.40;;
76814;SDS011;65768;49.906;19.384;2023-03-31T16:23:56;6.00;;;2.30;;
76814;SDS011;65768;49.906;19.384;2023-03-31T16:26:26;4.80;;;2.50;;
76814;SDS011;65768;49.906;19.384;2023-03-31T16:28:56;4.80;;;2.10;;
76814;SDS011;65768;49.906;19.384;2023-03-31T16:31:27;7.80;;;2.50;;
76814;SDS011;65768;49.906;19.384;2023-03-31T16:34:03;5.70;;;2.20;;
76814;SDS011;65768;49.906;19.384;2023-03-31T16:36:33;6.60;;;2.70;;
76814;SDS011;65768;49.906;19.384;2023-03-31T16:39:02;5.70;;;2.70;;
76814;SDS011;65768;49.906;19.384;2023-03-31T16:41:32;6.00;;;3.50;;
76814;SDS011;65768;49.906;19.384;2023-03-31T16:44:05;8.50;;;3.10;;
76814;SDS011;65768;49.906;19.384;2023-03-31T16:46:33;6.40;;;2.70;;
76814;SDS011;65768;49.906;19.384;2023-03-31T16:49:02;7.20;;;3.90;;
76814;SDS011;65768;49.906;19.384;2023-03-31T16:51:30;11.50;;;5.20;;
76814;SDS011;65768;49.906;19.384;2023-03-31T16:53:59;8.20;;;3.90;;
76814;SDS011;65768;49.906;19.384;2023-03-31T16:56:27;11.20;;;3.90;;
76814;SDS011;65768;49.906;19.384;2023-03-31T16:58:55;7.10;;;3.50;;
76814;SDS011;65768;49.906;19.384;2023-03-31T17:01:24;12.40;;;4.30;;
76814;SDS011;65768;49.906;19.384;2023-03-31T17:03:52;29.30;;;12.20;;
76814;SDS011;65768;49.906;19.384;2023-03-31T17:06:23;7.90;;;3.50;;
76814;SDS011;65768;49.906;19.384;2023-03-31T17:08:51;8.00;;;4.30;;
76814;SDS011;65768;49.906;19.384;2023-03-31T17:11:19;11.30;;;4.30;;
76814;SDS011;65768;49.906;19.384;2023-03-31T17:13:49;8.30;;;3.80;;
76814;SDS011;65768;49.906;19.384;2023-03-31T17:16:18;9.50;;;4.40;;
76814;SDS011;65768;49.906;19.384;2023-03-31T17:18:47;8.10;;;3.30;;
76814;SDS011;65768;49.906;19.384;2023-03-31T17:21:16;7.30;;;4.10;;
76814;SDS011;65768;49.906;19.384;2023-03-31T17:23:47;7.20;;;3.60;;
76814;SDS011;65768;49.906;19.384;2023-03-31T17:26:16;10.70;;;4.50;;
76814;SDS011;65768;49.906;19.384;2023-03-31T17:28:45;9.40;;;4.70;;
76814;SDS011;65768;49.906;19.384;2023-03-31T17:31:14;9.30;;;5.20;;
76814;SDS011;65768;49.906;19.384;2023-03-31T17:33:45;9.00;;;4.60;;
76814;SDS011;65768;49.906;19.384;2023-03-31T17:36:14;13.30;;;5.90;;
76814;SDS011;65768;49.906;19.384;2023-03-31T17:38:43;10.90;;;5.30;;
76814;SDS011;65768;49.906;19.384;2023-03-31T17:41:13;24.30;;;9.10;;
76814;SDS011;65768;49.906;19.384;2023-03-31T17:43:45;20.50;;;8.40;;
76814;SDS011;65768;49.906;19.384;2023-03-31T17:46:16;18.20;;;8.20;;
76814;SDS011;65768;49.906;19.384;2023-03-31T17:48:46;12.10;;;4.90;;
76814;SDS011;65768;49.906;19.384;2023-03-31T17:51:16;8.70;;;4.30;;
76814;SDS011;65768;49.906;19.384;2023-03-31T17:53:47;8.40;;;5.10;;
76814;SDS011;65768;49.906;19.384;2023-03-31T17:56:16;13.00;;;5.80;;